Terminal Aerodrome Forecast
Issued by NWS

Home | Current Version | Previous Version | Text Only | Print | Product List | Glossary On
Versions: 1 2 3 4 5 6 7 8 9 10 11 12 13 14 15 16 17
000
FTUS43 KDTX 210520
TAFPTK
TAF
KPTK 210520Z 2106/2206 20014KT P6SM BKN200 WS012/22045KT
     FM211400 22015G25KT P6SM BKN150
     FM211700 24012G22KT P6SM BKN035 OVC060
     FM212000 28014G22KT P6SM BKN022 OVC040 PROB30 2120/2123 5SM
      -SHRA BR OVC022
     FM220000 30011G19KT P6SM BKN030 OVC045=

USA.gov is the U.S. government's official web portal to all federal, state and local government web resources and services.